createdAt,value
2023-05-19T00:00:46.953Z,100.00
2023-05-19T00:03:53.753Z,100.00
2023-05-19T00:06:57.518Z,100.00
2023-05-19T00:10:00.619Z,100.00
2023-05-19T00:13:03.200Z,100.00
2023-05-19T00:16:06.447Z,100.00
2023-05-19T00:19:10.349Z,100.00
2023-05-19T00:22:14.573Z,100.00
2023-05-19T00:25:17.258Z,100.00
2023-05-19T00:28:20.050Z,100.00
2023-05-19T00:31:22.914Z,100.00
2023-05-19T00:34:25.772Z,100.00
2023-05-19T00:37:28.269Z,100.00
2023-05-19T00:40:31.525Z,100.00
2023-05-19T00:43:37.040Z,100.00
2023-05-19T00:46:39.932Z,100.00
2023-05-19T00:49:42.408Z,100.00
2023-05-19T00:52:45.205Z,100.00
2023-05-19T00:55:49.481Z,100.00
2023-05-19T00:58:52.257Z,100.00
2023-05-19T01:01:54.924Z,100.00
2023-05-19T01:04:57.825Z,100.00
2023-05-19T01:08:00.344Z,100.00
2023-05-19T01:11:04.100Z,100.00
2023-05-19T01:14:06.780Z,100.00
2023-05-19T01:17:21.004Z,100.00
2023-05-19T01:20:53.988Z,100.00
2023-05-19T01:24:06.373Z,100.00
2023-05-19T01:27:21.764Z,100.00
2023-05-19T01:30:33.371Z,100.00
2023-05-19T01:33:36.194Z,100.00
2023-05-19T01:36:39.256Z,100.00
2023-05-19T01:39:43.064Z,100.00
2023-05-19T01:42:46.877Z,100.00
2023-05-19T01:45:49.950Z,100.00
2023-05-19T01:48:52.881Z,100.00
2023-05-19T01:51:56.243Z,100.00
2023-05-19T01:54:59.091Z,100.00
2023-05-19T01:58:16.529Z,100.00
2023-05-19T02:01:25.387Z,100.00
2023-05-19T02:04:40.015Z,100.00
2023-05-19T02:07:52.459Z,100.00
2023-05-19T02:10:58.806Z,100.00
2023-05-19T02:14:03.546Z,100.00
2023-05-19T02:17:06.466Z,100.00
2023-05-19T02:20:09.904Z,100.00
2023-05-19T02:23:12.663Z,100.00
2023-05-19T02:26:15.722Z,100.00
2023-05-19T02:29:19.164Z,100.00
2023-05-19T02:32:22.041Z,100.00
2023-05-19T02:35:24.840Z,100.00
2023-05-19T02:38:27.675Z,100.00
2023-05-19T02:41:30.798Z,100.00
2023-05-19T02:44:33.472Z,100.00
2023-05-19T02:47:37.157Z,100.00
2023-05-19T02:50:39.935Z,100.00
2023-05-19T02:53:42.771Z,100.00
2023-05-19T02:56:45.367Z,100.00
2023-05-19T02:59:48.104Z,100.00
2023-05-19T03:02:53.088Z,100.00
2023-05-19T03:05:56.256Z,100.00
2023-05-19T03:08:58.968Z,100.00
2023-05-19T03:12:04.045Z,100.00
2023-05-19T03:15:07.256Z,100.00
2023-05-19T03:18:10.113Z,100.00
2023-05-19T03:21:12.766Z,100.00
2023-05-19T03:24:16.164Z,100.00
2023-05-19T03:27:18.664Z,100.00
2023-05-19T03:30:22.227Z,100.00
2023-05-19T03:33:28.103Z,100.00
2023-05-19T03:36:39.704Z,100.00
2023-05-19T03:39:44.455Z,100.00
2023-05-19T03:42:47.328Z,100.00
2023-05-19T03:45:49.873Z,100.00
2023-05-19T03:48:54.421Z,100.00
2023-05-19T03:51:58.206Z,100.00
2023-05-19T03:55:01.868Z,100.00
2023-05-19T03:58:04.450Z,100.00
2023-05-19T04:01:07.272Z,100.00
2023-05-19T04:04:10.123Z,100.00
2023-05-19T04:07:12.703Z,100.00
2023-05-19T04:10:17.397Z,100.00
2023-05-19T04:13:21.179Z,100.00
2023-05-19T04:16:24.097Z,100.00
2023-05-19T04:19:26.705Z,100.00
2023-05-19T04:22:30.985Z,100.00
2023-05-19T04:25:33.658Z,100.00
2023-05-19T04:28:39.941Z,100.00
2023-05-19T04:31:42.432Z,100.00
2023-05-19T04:34:46.122Z,100.00
2023-05-19T04:37:50.484Z,100.00
2023-05-19T04:40:53.945Z,100.00
2023-05-19T04:43:57.643Z,100.00
2023-05-19T04:47:00.867Z,100.00
2023-05-19T04:50:04.207Z,100.00
2023-05-19T04:53:07.330Z,100.00
2023-05-19T04:56:10.233Z,100.00
2023-05-19T04:59:13.118Z,100.00
2023-05-19T05:02:16.286Z,100.00
2023-05-19T05:05:19.308Z,100.00
2023-05-19T05:08:23.504Z,100.00
2023-05-19T05:11:26.845Z,100.00
2023-05-19T05:14:30.146Z,100.00
2023-05-19T05:17:35.642Z,100.00
2023-05-19T05:20:38.790Z,100.00
2023-05-19T05:23:41.879Z,100.00
2023-05-19T05:26:45.777Z,100.00
2023-05-19T05:29:50.587Z,100.00
2023-05-19T05:32:55.888Z,100.00
2023-05-19T05:36:01.652Z,100.00
2023-05-19T05:39:05.596Z,100.00
2023-05-19T05:42:11.106Z,100.00
2023-05-19T05:45:14.229Z,100.00
2023-05-19T05:48:17.646Z,100.00
2023-05-19T05:51:23.780Z,100.00
2023-05-19T05:57:31.075Z,100.00
2023-05-19T06:00:34.917Z,100.00
2023-05-19T06:03:44.291Z,100.00
2023-05-19T06:06:48.017Z,100.00
2023-05-19T06:09:52.364Z,100.00
2023-05-19T06:12:55.374Z,100.00
2023-05-19T06:16:00.453Z,98.97
2023-05-19T06:19:04.853Z,97.39
2023-05-19T06:22:07.759Z,95.72
2023-05-19T06:25:10.397Z,96.10
2023-05-19T06:28:13.690Z,94.84
2023-05-19T06:31:16.667Z,93.29
2023-05-19T06:34:21.091Z,91.00
2023-05-19T06:37:23.972Z,88.90
2023-05-19T06:40:27.010Z,86.23
2023-05-19T06:43:30.313Z,86.20
2023-05-19T06:46:33.402Z,88.36
2023-05-19T06:49:36.227Z,89.15
2023-05-19T06:52:39.517Z,89.85
2023-05-19T06:55:54.784Z,92.89
2023-05-19T06:59:02.264Z,93.18
2023-05-19T07:02:05.299Z,93.14
2023-05-19T07:05:09.298Z,93.14
2023-05-19T07:08:12.089Z,92.86
2023-05-19T07:11:15.414Z,92.97
2023-05-19T07:14:18.504Z,89.15
2023-05-19T07:17:22.460Z,87.38
2023-05-19T07:20:25.127Z,88.10
2023-05-19T07:23:27.850Z,85.59
2023-05-19T07:26:30.431Z,86.16
2023-05-19T07:29:33.423Z,88.51
2023-05-19T07:32:37.667Z,84.42
2023-05-19T07:35:42.675Z,81.87
2023-05-19T07:38:46.697Z,82.19
2023-05-19T07:41:52.853Z,80.97
2023-05-19T07:44:55.417Z,80.52
2023-05-19T07:47:58.324Z,83.97
2023-05-19T07:51:00.937Z,90.25
2023-05-19T07:54:03.785Z,88.44
2023-05-19T07:57:06.337Z,86.38
2023-05-19T08:00:12.121Z,88.19
2023-05-19T08:03:17.906Z,87.88
2023-05-19T08:06:21.302Z,87.35
2023-05-19T08:09:24.525Z,87.26
2023-05-19T08:12:28.879Z,86.92
2023-05-19T08:15:33.105Z,84.16
2023-05-19T08:18:37.365Z,84.99
2023-05-19T08:21:42.364Z,82.74
2023-05-19T08:24:45.197Z,84.60
2023-05-19T08:27:47.696Z,84.32
2023-05-19T08:30:52.325Z,79.62
2023-05-19T08:33:54.914Z,77.95
2023-05-19T08:36:58.033Z,77.90
2023-05-19T08:40:01.619Z,76.03
2023-05-19T08:43:08.096Z,75.06
2023-05-19T08:46:13.870Z,75.39
2023-05-19T08:49:17.909Z,79.01
2023-05-19T08:52:55.744Z,78.92
2023-05-19T08:55:59.003Z,79.00
2023-05-19T08:59:02.300Z,77.10
2023-05-19T09:02:05.225Z,80.04
2023-05-19T09:05:09.813Z,79.04
2023-05-19T09:08:12.719Z,75.86
2023-05-19T09:11:17.289Z,74.67
2023-05-19T09:14:19.886Z,75.07
2023-05-19T09:17:22.795Z,75.55
2023-05-19T09:20:25.314Z,71.81
2023-05-19T09:26:39.313Z,72.89
2023-05-19T09:29:42.558Z,68.13
2023-05-19T09:32:47.173Z,65.49
2023-05-19T09:35:50.043Z,68.29
2023-05-19T09:38:52.673Z,69.59
2023-05-19T09:41:58.529Z,70.97
2023-05-19T09:45:02.247Z,72.25
2023-05-19T09:48:05.838Z,71.25
2023-05-19T09:51:10.842Z,70.01
2023-05-19T09:54:16.891Z,71.56
2023-05-19T09:57:26.895Z,72.63
2023-05-19T10:00:31.473Z,73.19
2023-05-19T10:03:34.911Z,69.19
2023-05-19T10:06:37.575Z,59.76
2023-05-19T10:09:41.788Z,62.47
2023-05-19T10:12:44.328Z,66.73
2023-05-19T10:15:58.047Z,66.63
2023-05-19T10:19:02.687Z,65.93
2023-05-19T10:22:05.536Z,62.43
2023-05-19T10:25:09.897Z,65.01
2023-05-19T10:28:15.179Z,64.06
2023-05-19T10:31:19.615Z,64.45
2023-05-19T10:34:57.359Z,63.12
2023-05-19T10:38:44.651Z,65.49
2023-05-19T10:42:18.174Z,68.43
2023-05-19T10:45:22.716Z,61.67
2023-05-19T10:48:25.771Z,55.94
2023-05-19T10:51:32.165Z,57.33
2023-05-19T10:54:43.459Z,60.05
2023-05-19T10:57:56.929Z,63.30
2023-05-19T11:01:03.049Z,66.00
2023-05-19T11:07:19.543Z,61.09
2023-05-19T11:10:25.305Z,64.46
2023-05-19T11:13:28.717Z,63.51
2023-05-19T11:16:34.655Z,65.90
2023-05-19T11:19:37.574Z,65.31
2023-05-19T11:22:41.444Z,64.20
2023-05-19T11:25:52.226Z,64.29
2023-05-19T11:28:54.764Z,65.07
2023-05-19T11:31:58.853Z,64.39
2023-05-19T11:35:04.531Z,66.12
2023-05-19T11:38:07.426Z,68.66
2023-05-19T11:41:09.935Z,69.09
2023-05-19T11:44:12.821Z,67.21
2023-05-19T11:47:16.878Z,64.99
2023-05-19T11:50:20.652Z,64.36
2023-05-19T11:53:23.370Z,63.52
2023-05-19T11:56:26.236Z,63.98
2023-05-19T11:59:36.418Z,66.89
2023-05-19T12:02:39.374Z,68.03
2023-05-19T12:05:47.405Z,68.64
2023-05-19T12:08:54.816Z,66.16
2023-05-19T12:11:58.450Z,66.36
2023-05-19T12:15:03.617Z,67.24
2023-05-19T12:18:07.546Z,68.61
2023-05-19T12:21:10.347Z,68.09
2023-05-19T12:24:13.598Z,68.15
2023-05-19T12:27:28.260Z,66.96
2023-05-19T12:30:32.577Z,68.04
2023-05-19T12:33:35.987Z,68.96
2023-05-19T12:36:38.873Z,67.68
2023-05-19T12:39:42.922Z,68.66
2023-05-19T12:42:45.760Z,67.42
2023-05-19T12:45:48.858Z,68.83
2023-05-19T12:48:51.818Z,66.53
2023-05-19T12:51:54.496Z,66.24
2023-05-19T12:55:02.270Z,65.82
2023-05-19T12:58:06.916Z,67.64
2023-05-19T13:01:17.532Z,68.56
2023-05-19T13:04:20.213Z,68.06
2023-05-19T13:07:23.098Z,68.28
2023-05-19T13:10:29.448Z,68.34
2023-05-19T13:13:32.448Z,69.07
2023-05-19T13:16:35.060Z,69.55
2023-05-19T13:19:38.083Z,70.28
2023-05-19T13:22:40.866Z,70.17
2023-05-19T13:25:44.029Z,69.40
2023-05-19T13:28:46.539Z,68.57
2023-05-19T13:31:49.302Z,68.70
2023-05-19T13:34:51.863Z,70.97
2023-05-19T13:37:54.857Z,69.93
2023-05-19T13:40:57.442Z,68.44
2023-05-19T13:44:01.169Z,70.28
2023-05-19T13:47:03.755Z,70.00
2023-05-19T13:50:06.944Z,70.27
2023-05-19T13:53:11.412Z,70.89
2023-05-19T13:56:15.793Z,69.09
2023-05-19T13:59:21.570Z,69.93
2023-05-19T14:02:24.447Z,71.26
2023-05-19T14:05:28.866Z,71.10
2023-05-19T14:08:31.576Z,70.87
2023-05-19T14:11:34.515Z,72.11
2023-05-19T14:14:37.123Z,74.68
2023-05-19T14:17:39.947Z,73.83
2023-05-19T14:20:42.478Z,71.84
2023-05-19T14:23:47.779Z,71.02
2023-05-19T14:26:50.680Z,71.91
2023-05-19T14:29:55.303Z,72.93
2023-05-19T14:32:58.158Z,72.66
2023-05-19T14:36:01.413Z,73.26
2023-05-19T14:39:03.924Z,72.08
2023-05-19T14:42:06.728Z,72.05
2023-05-19T14:45:09.824Z,72.19
2023-05-19T14:48:12.656Z,72.00
2023-05-19T14:51:15.254Z,70.68
2023-05-19T14:54:18.041Z,71.92
2023-05-19T14:57:20.474Z,73.58
2023-05-19T15:00:26.037Z,70.85
2023-05-19T15:03:28.567Z,71.84
2023-05-19T15:06:31.530Z,71.09
2023-05-19T15:09:34.051Z,69.81
2023-05-19T15:12:36.879Z,70.09
2023-05-19T15:15:39.346Z,70.09
2023-05-19T15:18:42.194Z,71.00
2023-05-19T15:21:45.763Z,70.65
2023-05-19T15:24:48.745Z,69.76
2023-05-19T15:27:51.295Z,69.97
2023-05-19T15:30:54.095Z,71.66
2023-05-19T15:33:56.782Z,71.81
2023-05-19T15:37:00.234Z,74.27
2023-05-19T15:43:06.487Z,77.06
2023-05-19T15:46:09.054Z,77.13
2023-05-19T15:49:12.824Z,77.00
2023-05-19T15:52:34.453Z,77.23
2023-05-19T15:55:37.263Z,77.62
2023-05-19T15:58:39.864Z,78.02
2023-05-19T16:01:43.030Z,77.56
2023-05-19T16:04:46.023Z,76.77
2023-05-19T16:07:48.455Z,77.46
2023-05-19T16:10:51.220Z,76.53
2023-05-19T16:13:53.742Z,77.07
2023-05-19T16:16:56.931Z,76.25
2023-05-19T16:19:59.391Z,75.87
2023-05-19T16:23:04.088Z,76.60
2023-05-19T16:26:06.625Z,77.79
2023-05-19T16:29:09.393Z,78.48
2023-05-19T16:32:12.058Z,79.73
2023-05-19T16:35:14.986Z,80.77
2023-05-19T16:38:17.449Z,80.18
2023-05-19T16:41:20.198Z,80.27
2023-05-19T16:44:24.525Z,80.35
2023-05-19T16:47:27.438Z,81.32
2023-05-19T16:50:30.744Z,81.36
2023-05-19T16:53:33.641Z,83.44
2023-05-19T16:56:36.203Z,82.02
2023-05-19T16:59:39.006Z,82.98
2023-05-19T17:02:41.602Z,82.59
2023-05-19T17:05:44.568Z,82.86
2023-05-19T17:08:47.155Z,83.86
2023-05-19T17:11:49.947Z,83.80
2023-05-19T17:14:52.596Z,82.86
2023-05-19T17:17:55.460Z,83.34
2023-05-19T17:20:59.443Z,83.87
2023-05-19T17:24:02.323Z,83.67
2023-05-19T17:27:05.053Z,83.67
2023-05-19T17:30:09.233Z,83.63
2023-05-19T17:33:11.781Z,84.15
2023-05-19T17:36:15.840Z,85.29
2023-05-19T17:39:20.172Z,85.54
2023-05-19T17:42:22.985Z,85.95
2023-05-19T17:45:26.519Z,86.86
2023-05-19T17:51:33.007Z,88.41
2023-05-19T17:54:36.057Z,89.11
2023-05-19T18:00:44.232Z,90.10
2023-05-19T18:03:49.437Z,90.10
2023-05-19T18:06:52.711Z,90.59
2023-05-19T18:09:58.157Z,91.00
2023-05-19T18:13:00.992Z,91.58
2023-05-19T18:16:04.207Z,91.63
2023-05-19T18:19:08.436Z,91.73
2023-05-19T18:22:13.006Z,92.10
2023-05-19T18:25:17.015Z,92.83
2023-05-19T18:28:19.983Z,93.02
2023-05-19T18:31:22.529Z,93.48
2023-05-19T18:34:25.579Z,94.60
2023-05-19T18:37:28.688Z,95.45
2023-05-19T18:40:31.757Z,96.37
2023-05-19T18:43:34.462Z,98.60
2023-05-19T18:46:39.102Z,97.85
2023-05-19T18:49:42.134Z,98.12
2023-05-19T18:52:46.500Z,98.91
2023-05-19T18:55:48.993Z,98.96
2023-05-19T18:58:54.522Z,100.00
2023-05-19T19:01:57.857Z,100.00
2023-05-19T19:08:05.676Z,100.00
2023-05-19T19:11:11.292Z,100.00
2023-05-19T19:14:13.775Z,100.00
2023-05-19T19:20:37.911Z,100.00
2023-05-19T19:23:40.709Z,100.00
2023-05-19T19:26:43.180Z,100.00
2023-05-19T19:29:46.195Z,100.00
2023-05-19T19:32:48.711Z,100.00
2023-05-19T19:35:51.677Z,100.00
2023-05-19T19:38:54.178Z,100.00
2023-05-19T19:41:56.960Z,100.00
2023-05-19T19:44:59.452Z,100.00
2023-05-19T19:48:02.390Z,100.00
2023-05-19T19:51:04.909Z,100.00
2023-05-19T19:54:07.755Z,100.00
2023-05-19T19:57:10.310Z,100.00
2023-05-19T20:00:13.859Z,100.00
2023-05-19T20:03:18.497Z,100.00
2023-05-19T20:06:22.825Z,100.00
2023-05-19T20:09:27.249Z,100.00
2023-05-19T20:12:30.192Z,100.00
2023-05-19T20:15:34.788Z,100.00
2023-05-19T20:18:37.358Z,100.00
2023-05-19T20:21:40.111Z,100.00
2023-05-19T20:24:42.627Z,100.00
2023-05-19T20:27:45.508Z,100.00
2023-05-19T20:30:48.066Z,100.00
2023-05-19T20:33:51.017Z,100.00
2023-05-19T20:36:54.514Z,100.00
2023-05-19T20:39:57.288Z,100.00
2023-05-19T20:42:59.784Z,100.00
2023-05-19T20:46:03.899Z,100.00
2023-05-19T20:49:06.634Z,100.00
2023-05-19T20:52:09.469Z,100.00
2023-05-19T20:55:12.008Z,100.00
2023-05-19T20:58:14.789Z,100.00
2023-05-19T21:01:17.468Z,100.00
2023-05-19T21:04:20.510Z,100.00
2023-05-19T21:07:23.061Z,100.00
2023-05-19T21:10:25.815Z,100.00
2023-05-19T21:13:28.307Z,100.00
2023-05-19T21:16:31.604Z,100.00
2023-05-19T21:19:36.940Z,100.00
2023-05-19T21:22:40.872Z,100.00
2023-05-19T21:25:45.315Z,100.00
2023-05-19T21:28:48.220Z,100.00
2023-05-19T21:31:55.999Z,100.00
2023-05-19T21:34:58.951Z,100.00
2023-05-19T21:38:12.122Z,100.00
2023-05-19T21:41:19.480Z,100.00
2023-05-19T21:44:23.854Z,100.00
2023-05-19T21:47:26.900Z,100.00
2023-05-19T21:50:29.370Z,100.00
2023-05-19T21:53:32.892Z,100.00
2023-05-19T21:59:40.619Z,100.00
2023-05-19T22:05:52.967Z,100.00
2023-05-19T22:08:55.692Z,100.00
2023-05-19T22:11:58.403Z,100.00
2023-05-19T22:15:01.123Z,100.00
2023-05-19T22:18:04.081Z,100.00
2023-05-19T22:21:06.692Z,100.00
2023-05-19T22:24:09.536Z,100.00
2023-05-19T22:27:12.113Z,100.00
2023-05-19T22:30:15.713Z,100.00
2023-05-19T22:33:18.308Z,100.00
2023-05-19T22:36:21.175Z,100.00
2023-05-19T22:39:23.684Z,100.00
2023-05-19T22:42:27.004Z,100.00
2023-05-19T22:48:34.857Z,100.00
2023-05-19T22:51:38.246Z,100.00
2023-05-19T22:54:43.075Z,100.00
2023-05-19T22:57:45.590Z,100.00
2023-05-19T23:00:48.369Z,100.00
2023-05-19T23:03:52.647Z,100.00
2023-05-19T23:06:55.641Z,100.00
2023-05-19T23:09:58.102Z,100.00
2023-05-19T23:13:04.675Z,100.00
2023-05-19T23:16:07.703Z,100.00
2023-05-19T23:19:10.603Z,100.00
2023-05-19T23:22:13.144Z,100.00
2023-05-19T23:25:15.954Z,100.00
2023-05-19T23:28:18.477Z,100.00
2023-05-19T23:31:21.265Z,100.00
2023-05-19T23:34:23.814Z,100.00
2023-05-19T23:37:26.528Z,100.00
2023-05-19T23:40:29.032Z,100.00
2023-05-19T23:43:34.749Z,100.00
2023-05-19T23:46:37.383Z,100.00
2023-05-19T23:49:40.294Z,100.00
2023-05-19T23:52:42.791Z,100.00
2023-05-19T23:55:46.214Z,100.00
2023-05-19T23:58:48.719Z,100.00
